Time;durP1;ratioP1;P1;durP2;ratioP2;P2;SDS_P1;SDS_P2;PMS_P1;PMS_P2;Temp;Humidity;BMP_temperature;BMP_pressure;BME280_temperature;BME280_humidity;BME280_pressure;Samples;Min_cycle;Max_cycle;Signal;HPM_P1;HPM_P2
2021/10/04 00:00:10;;;;;;;0.67;0.67;;;16.10;99.90;;;;;;5050633;28;20223;-70
2021/10/04 00:02:38;;;;;;;0.60;0.60;;;16.10;99.90;;;;;;5031418;28;20641;-70
2021/10/04 00:05:05;;;;;;;0.50;0.50;;;16.00;99.90;;;;;;5031521;28;20467;-71
2021/10/04 00:07:31;;;;;;;3.17;0.60;;;16.00;99.90;;;;;;5029369;28;20223;-70
2021/10/04 00:09:56;;;;;;;0.60;0.60;;;16.00;99.90;;;;;;5055687;28;20520;-71
2021/10/04 00:12:22;;;;;;;0.80;0.80;;;16.00;99.90;;;;;;5050120;28;20521;-71
2021/10/04 00:14:48;;;;;;;0.60;0.60;;;15.90;99.90;;;;;;5053160;28;20227;-70
2021/10/04 00:17:13;;;;;;;1.90;0.70;;;15.80;99.90;;;;;;5031409;28;20323;-71
2021/10/04 00:19:39;;;;;;;0.60;0.60;;;15.80;99.90;;;;;;5031096;28;20579;-72
2021/10/04 00:22:05;;;;;;;0.70;0.70;;;15.80;99.90;;;;;;5035895;28;20271;-71
2021/10/04 00:24:31;;;;;;;0.60;0.60;;;15.70;99.90;;;;;;5050762;28;20703;-70
2021/10/04 00:26:56;;;;;;;0.70;0.70;;;15.80;99.90;;;;;;5033584;28;20223;-71
2021/10/04 00:29:22;;;;;;;0.60;0.60;;;15.80;99.90;;;;;;5030678;28;20688;-70
2021/10/04 00:31:49;;;;;;;0.70;0.70;;;15.80;99.90;;;;;;5032849;28;20226;-71
2021/10/04 00:34:15;;;;;;;0.80;0.60;;;15.80;99.90;;;;;;5050610;28;20219;-71
2021/10/04 00:36:41;;;;;;;0.60;0.60;;;15.80;99.90;;;;;;5036817;28;20532;-70
2021/10/04 00:39:07;;;;;;;0.60;0.60;;;15.70;99.90;;;;;;5038164;28;20537;-70
2021/10/04 00:41:33;;;;;;;0.73;0.73;;;15.60;99.90;;;;;;5037057;28;20248;-71
2021/10/04 00:43:59;;;;;;;0.70;0.70;;;15.50;99.90;;;;;;5046557;28;20298;-72
2021/10/04 00:46:26;;;;;;;0.50;0.50;;;15.50;99.90;;;;;;5069070;28;20227;-71
2021/10/04 00:48:53;;;;;;;1.07;0.80;;;15.40;99.90;;;;;;5062757;28;20541;-70
2021/10/04 00:51:20;;;;;;;0.60;0.60;;;15.50;99.90;;;;;;5034090;28;20534;-70
2021/10/04 00:53:51;;;;;;;0.70;0.70;;;15.50;99.90;;;;;;5017610;28;20824;-71
2021/10/04 00:56:17;;;;;;;0.70;0.70;;;15.50;99.90;;;;;;5045342;28;20472;-70
2021/10/04 00:58:43;;;;;;;0.70;0.70;;;15.50;99.90;;;;;;5054604;28;20468;-71
2021/10/04 01:01:09;;;;;;;0.60;0.60;;;15.40;99.90;;;;;;5037979;28;20846;-70
2021/10/04 01:03:35;;;;;;;0.80;0.80;;;15.40;99.90;;;;;;5036423;28;20461;-70
2021/10/04 01:06:01;;;;;;;1.23;0.70;;;15.30;99.90;;;;;;5046606;28;20307;-71
2021/10/04 01:08:27;;;;;;;0.70;0.70;;;15.30;99.90;;;;;;5034140;28;20266;-71
2021/10/04 01:10:53;;;;;;;0.77;0.70;;;15.30;99.90;;;;;;5036313;28;20450;-70
2021/10/04 01:13:19;;;;;;;0.67;0.67;;;15.30;99.90;;;;;;5043840;28;20699;-70
2021/10/04 01:15:45;;;;;;;1.37;0.93;;;15.40;99.90;;;;;;5036336;28;20536;-70
2021/10/04 01:18:11;;;;;;;0.60;0.60;;;15.40;99.90;;;;;;5049980;28;20223;-71
2021/10/04 01:20:36;;;;;;;0.77;0.77;;;15.40;99.90;;;;;;5017631;28;20224;-70
2021/10/04 01:23:03;;;;;;;1.10;0.87;;;15.50;99.90;;;;;;5030005;28;20215;-72
2021/10/04 01:25:29;;;;;;;0.80;0.80;;;15.40;99.90;;;;;;5049558;28;20210;-71
2021/10/04 01:27:55;;;;;;;0.70;0.70;;;15.40;99.90;;;;;;5071251;28;20465;-70
2021/10/04 01:30:28;;;;;;;0.60;0.57;;;15.30;99.90;;;;;;5053732;28;20456;-70
2021/10/04 01:32:55;;;;;;;0.70;0.60;;;15.30;99.90;;;;;;5045786;28;20454;-70
2021/10/04 01:35:21;;;;;;;0.70;0.70;;;15.20;99.90;;;;;;5049795;28;21090;-71
2021/10/04 01:37:47;;;;;;;0.70;0.57;;;15.20;99.90;;;;;;5064002;28;20469;-70
2021/10/04 01:40:14;;;;;;;0.70;0.70;;;15.20;99.90;;;;;;5036651;28;20496;-71
2021/10/04 01:42:40;;;;;;;1.10;1.00;;;15.20;99.90;;;;;;5035949;28;20226;-71
2021/10/04 01:45:11;;;;;;;1.00;1.00;;;15.10;99.90;;;;;;5037317;28;20472;-70
2021/10/04 01:47:37;;;;;;;0.73;0.73;;;15.20;99.90;;;;;;5035243;28;20482;-70
2021/10/04 01:50:05;;;;;;;0.83;0.83;;;15.20;99.90;;;;;;5049849;28;20449;-70
2021/10/04 01:52:30;;;;;;;1.57;1.20;;;15.10;99.90;;;;;;5044501;28;20572;-70
2021/10/04 01:54:56;;;;;;;0.90;0.90;;;15.10;99.90;;;;;;5070202;28;20532;-70
2021/10/04 01:57:22;;;;;;;0.87;0.87;;;15.00;99.90;;;;;;5052832;28;20215;-70
2021/10/04 01:59:47;;;;;;;1.43;1.10;;;15.00;99.90;;;;;;5036266;28;20226;-68
2021/10/04 02:02:13;;;;;;;1.07;0.87;;;15.00;99.90;;;;;;5033226;28;20657;-70
2021/10/04 02:04:39;;;;;;;1.20;1.10;;;15.00;99.90;;;;;;5047919;28;20261;-71
2021/10/04 02:07:04;;;;;;;0.90;0.90;;;15.00;99.90;;;;;;5052795;28;20302;-70
2021/10/04 02:09:30;;;;;;;1.10;1.00;;;14.90;99.90;;;;;;5027828;28;20253;-70
2021/10/04 02:11:56;;;;;;;0.97;0.97;;;14.90;99.90;;;;;;5035617;28;20233;-70
2021/10/04 02:14:21;;;;;;;0.90;0.90;;;14.90;99.90;;;;;;5043350;28;20216;-71
2021/10/04 02:16:47;;;;;;;0.80;0.80;;;14.90;99.90;;;;;;5036417;28;20235;-70
2021/10/04 02:19:13;;;;;;;0.90;0.90;;;15.00;99.90;;;;;;5052172;28;20249;-71
2021/10/04 02:21:40;;;;;;;0.90;0.90;;;15.00;99.90;;;;;;5052289;28;20223;-70
2021/10/04 02:24:06;;;;;;;0.87;0.87;;;15.00;99.90;;;;;;5053143;28;20223;-71
2021/10/04 02:26:31;;;;;;;1.10;1.00;;;15.00;99.90;;;;;;5069320;28;20527;-71
2021/10/04 02:28:57;;;;;;;1.20;1.00;;;15.00;99.90;;;;;;5052967;28;20231;-71
2021/10/04 02:31:23;;;;;;;0.90;0.90;;;15.00;99.90;;;;;;5042765;28;20217;-69
2021/10/04 02:33:48;;;;;;;1.07;0.97;;;15.00;99.90;;;;;;5028935;28;20219;-70
2021/10/04 02:36:15;;;;;;;1.00;1.00;;;15.00;99.90;;;;;;5035686;28;20280;-70
2021/10/04 02:38:40;;;;;;;1.10;1.10;;;14.90;99.90;;;;;;5052069;28;20305;-70
2021/10/04 02:41:06;;;;;;;2.73;1.23;;;14.90;99.90;;;;;;5052860;28;20542;-70
2021/10/04 02:43:32;;;;;;;0.90;0.90;;;15.00;99.90;;;;;;5051305;28;20215;-71
2021/10/04 02:45:57;;;;;;;1.40;1.03;;;14.90;99.90;;;;;;5036505;28;20598;-71
2021/10/04 02:48:23;;;;;;;1.47;1.00;;;14.90;99.90;;;;;;5036202;28;20266;-71
2021/10/04 02:50:49;;;;;;;1.40;1.30;;;14.90;99.90;;;;;;5034503;28;20219;-70
2021/10/04 02:53:14;;;;;;;1.10;1.10;;;14.90;99.90;;;;;;5042814;28;20223;-71
2021/10/04 02:55:40;;;;;;;1.20;1.10;;;14.80;99.90;;;;;;5031476;28;20273;-70
2021/10/04 02:58:06;;;;;;;0.80;0.80;;;14.80;99.90;;;;;;5050248;28;20223;-71
2021/10/04 03:00:34;;;;;;;1.00;1.00;;;14.90;99.90;;;;;;5045317;28;20266;-71
2021/10/04 03:03:01;;;;;;;1.63;1.20;;;14.90;99.90;;;;;;5047537;28;20485;-69
2021/10/04 03:05:27;;;;;;;1.13;1.03;;;14.80;99.90;;;;;;5069613;28;20547;-71
2021/10/04 03:07:53;;;;;;;1.13;1.00;;;14.80;99.90;;;;;;5034753;28;20516;-72
2021/10/04 03:10:18;;;;;;;1.30;1.20;;;14.80;99.90;;;;;;5061016;28;20224;-70
2021/10/04 03:12:44;;;;;;;1.47;1.20;;;14.90;99.90;;;;;;5034044;28;20223;-70
2021/10/04 03:15:10;;;;;;;1.10;1.00;;;14.90;99.90;;;;;;5051622;28;20591;-70
2021/10/04 03:17:35;;;;;;;1.10;1.10;;;14.90;99.90;;;;;;5049675;28;20211;-71
2021/10/04 03:20:02;;;;;;;1.23;1.13;;;14.90;99.90;;;;;;5040504;28;20227;-71
2021/10/04 03:22:27;;;;;;;1.60;1.30;;;14.90;99.90;;;;;;5034086;28;20230;-71
2021/10/04 03:24:53;;;;;;;1.13;1.13;;;14.90;99.90;;;;;;5035463;28;20450;-70
2021/10/04 03:27:19;;;;;;;1.13;1.07;;;14.90;99.90;;;;;;5033072;28;20731;-71
2021/10/04 03:29:44;;;;;;;1.40;1.30;;;14.90;99.90;;;;;;5033693;28;20631;-70
2021/10/04 03:32:10;;;;;;;0.87;0.87;;;14.90;99.90;;;;;;5057531;28;20212;-70
2021/10/04 03:34:36;;;;;;;1.93;1.50;;;14.90;99.90;;;;;;5034177;28;20215;-71
2021/10/04 03:37:03;;;;;;;1.60;1.50;;;14.80;99.90;;;;;;5050736;28;20767;-70
2021/10/04 03:39:29;;;;;;;2.00;1.17;;;14.80;99.90;;;;;;5039818;28;20450;-71
2021/10/04 03:41:56;;;;;;;1.20;1.07;;;14.80;99.90;;;;;;5026358;28;20461;-71
2021/10/04 03:44:22;;;;;;;1.23;1.20;;;14.80;99.90;;;;;;5040944;28;20462;-71
2021/10/04 03:46:48;;;;;;;1.30;0.90;;;14.80;99.90;;;;;;5053489;28;20445;-70
2021/10/04 03:49:13;;;;;;;0.90;0.90;;;14.90;99.90;;;;;;5050536;28;20235;-70
2021/10/04 03:51:39;;;;;;;1.00;1.00;;;14.90;99.90;;;;;;5050497;28;20226;-70
2021/10/04 03:54:05;;;;;;;1.77;1.20;;;14.90;99.90;;;;;;5068000;28;20223;-71
2021/10/04 03:56:30;;;;;;;2.77;1.37;;;15.00;99.90;;;;;;5030873;28;20232;-71
2021/10/04 03:58:56;;;;;;;1.40;1.30;;;15.00;99.90;;;;;;5046050;28;20222;-70
2021/10/04 04:01:22;;;;;;;1.33;0.90;;;15.00;99.90;;;;;;5048895;28;20314;-71
2021/10/04 04:03:51;;;;;;;1.10;1.10;;;15.00;99.90;;;;;;5014423;28;20216;-71
2021/10/04 04:06:18;;;;;;;1.17;1.07;;;15.00;99.90;;;;;;5033414;28;20380;-71
2021/10/04 04:08:43;;;;;;;1.90;1.30;;;15.00;99.90;;;;;;5049698;28;20453;-71
2021/10/04 04:11:09;;;;;;;1.20;1.10;;;15.00;99.90;;;;;;5069078;28;20453;-71
2021/10/04 04:13:35;;;;;;;1.40;1.30;;;15.00;99.90;;;;;;5033942;28;20227;-70
2021/10/04 04:16:00;;;;;;;1.67;1.57;;;15.00;99.90;;;;;;5066908;28;20277;-70
2021/10/04 04:18:26;;;;;;;1.50;1.40;;;15.00;99.90;;;;;;5049387;28;20247;-71
2021/10/04 04:20:52;;;;;;;1.77;1.17;;;15.00;99.90;;;;;;5029482;28;20215;-70
2021/10/04 04:23:17;;;;;;;1.20;1.13;;;15.00;99.90;;;;;;5050649;28;20226;-71
2021/10/04 04:25:43;;;;;;;1.60;1.20;;;15.10;99.90;;;;;;5033824;28;20234;-69
2021/10/04 04:28:08;;;;;;;1.30;1.03;;;15.00;99.90;;;;;;5050057;28;20231;-71
2021/10/04 04:30:34;;;;;;;1.17;1.07;;;15.10;99.90;;;;;;5029398;28;20227;-71
2021/10/04 04:33:00;;;;;;;1.03;0.93;;;15.00;99.90;;;;;;5067139;28;20227;-71
2021/10/04 04:35:26;;;;;;;1.50;1.20;;;15.10;99.90;;;;;;5058910;28;20295;-70
2021/10/04 04:37:52;;;;;;;1.37;1.27;;;15.10;99.90;;;;;;5050233;28;20528;-71
2021/10/04 04:40:18;;;;;;;1.10;1.10;;;15.00;99.90;;;;;;5033915;28;20683;-71
2021/10/04 04:42:45;;;;;;;1.50;1.33;;;15.00;99.90;;;;;;5033927;28;20253;-71
2021/10/04 04:45:13;;;;;;;1.23;1.20;;;15.00;99.90;;;;;;5050279;28;20511;-70
2021/10/04 04:47:39;;;;;;;1.73;1.63;;;15.00;99.90;;;;;;5044735;28;20576;-70
2021/10/04 04:50:07;;;;;;;1.33;1.20;;;15.00;99.90;;;;;;5030785;28;20557;-70
2021/10/04 04:52:33;;;;;;;1.97;1.27;;;14.90;99.90;;;;;;5033501;28;20223;-71
2021/10/04 04:54:59;;;;;;;1.00;1.00;;;14.90;99.90;;;;;;5047247;28;20507;-71
2021/10/04 04:57:24;;;;;;;1.13;1.00;;;14.90;99.90;;;;;;5039049;28;20243;-71
2021/10/04 04:59:51;;;;;;;0.90;0.90;;;14.80;99.90;;;;;;5030899;28;20649;-70
2021/10/04 05:02:18;;;;;;;1.20;1.10;;;14.80;99.90;;;;;;5065560;28;20869;-71
2021/10/04 05:04:44;;;;;;;1.30;1.20;;;14.90;99.90;;;;;;5034027;28;20458;-71
2021/10/04 05:07:10;;;;;;;1.53;1.43;;;14.90;99.90;;;;;;5068748;28;20457;-71
2021/10/04 05:09:36;;;;;;;1.37;1.27;;;14.80;99.90;;;;;;5067176;28;20467;-72
2021/10/04 05:12:02;;;;;;;1.27;1.20;;;14.80;99.90;;;;;;5068054;28;20219;-70
2021/10/04 05:14:27;;;;;;;2.73;1.40;;;14.90;99.90;;;;;;5033317;28;20215;-68
2021/10/04 05:16:53;;;;;;;1.37;1.27;;;14.90;99.90;;;;;;5050385;28;20836;-70
2021/10/04 05:19:19;;;;;;;1.53;1.43;;;14.90;99.90;;;;;;5047964;28;20706;-70
2021/10/04 05:21:44;;;;;;;1.57;1.17;;;14.90;99.90;;;;;;5016077;28;20280;-70
2021/10/04 05:24:11;;;;;;;1.60;1.50;;;14.90;99.90;;;;;;5026447;28;20216;-70
2021/10/04 05:26:37;;;;;;;1.53;1.43;;;14.90;99.90;;;;;;5053783;28;20242;-70
2021/10/04 05:29:03;;;;;;;1.10;1.00;;;14.90;99.90;;;;;;5071584;28;20500;-70
2021/10/04 05:31:29;;;;;;;1.40;1.30;;;14.90;99.90;;;;;;5065079;28;20462;-70
2021/10/04 05:33:55;;;;;;;2.60;1.60;;;14.90;99.90;;;;;;5069556;28;20273;-69
2021/10/04 05:36:20;;;;;;;1.20;1.10;;;14.90;99.90;;;;;;5051987;28;20230;-70
2021/10/04 05:38:46;;;;;;;2.13;1.70;;;14.90;99.90;;;;;;5033443;28;20215;-71
2021/10/04 05:41:13;;;;;;;1.60;1.50;;;14.90;99.90;;;;;;5052086;28;20223;-71
2021/10/04 05:43:39;;;;;;;2.53;2.03;;;14.80;99.90;;;;;;5029429;28;20505;-71
2021/10/04 05:46:04;;;;;;;2.80;1.73;;;14.80;99.90;;;;;;5050056;28;20477;-70
2021/10/04 05:48:31;;;;;;;2.73;2.47;;;14.70;99.90;;;;;;5015290;28;20236;-71
2021/10/04 05:50:58;;;;;;;4.67;2.73;;;14.70;99.90;;;;;;5039867;28;20258;-71
2021/10/04 05:53:23;;;;;;;2.40;1.77;;;14.70;99.90;;;;;;5039556;28;20832;-72
2021/10/04 05:55:49;;;;;;;4.60;2.70;;;14.70;99.90;;;;;;5017020;28;20461;-71
2021/10/04 05:58:15;;;;;;;2.10;1.90;;;14.70;99.90;;;;;;5040704;28;20273;-71
2021/10/04 06:00:43;;;;;;;1.90;1.70;;;14.70;99.90;;;;;;5062271;28;20458;-70
2021/10/04 06:03:08;;;;;;;2.70;2.50;;;14.70;99.90;;;;;;5031636;28;20591;-71
2021/10/04 06:05:34;;;;;;;2.07;1.90;;;14.70;99.90;;;;;;5015040;28;20473;-71
2021/10/04 06:08:02;;;;;;;1.50;1.40;;;14.70;99.90;;;;;;5021941;28;20238;-70
2021/10/04 06:10:28;;;;;;;2.13;2.03;;;14.70;99.90;;;;;;5050452;28;20227;-71
2021/10/04 06:12:54;;;;;;;3.30;2.07;;;14.80;99.90;;;;;;5050131;28;20461;-68
2021/10/04 06:15:20;;;;;;;6.20;1.97;;;14.80;99.90;;;;;;5049760;28;20466;-70
2021/10/04 06:17:46;;;;;;;3.17;1.60;;;14.80;99.90;;;;;;5049352;28;20216;-70
2021/10/04 06:20:12;;;;;;;1.70;1.60;;;14.80;99.90;;;;;;5031089;28;20262;-71
2021/10/04 06:22:39;;;;;;;2.23;2.07;;;14.80;99.90;;;;;;5060246;28;20485;-71
2021/10/04 06:25:08;;;;;;;1.53;1.43;;;14.80;99.90;;;;;;5034422;28;20480;-71
2021/10/04 06:27:34;;;;;;;2.03;1.83;;;14.80;99.90;;;;;;5025887;28;20477;-70
2021/10/04 06:30:00;;;;;;;8.10;2.13;;;14.80;99.90;;;;;;5030356;28;20549;-70
2021/10/04 06:32:26;;;;;;;1.53;1.43;;;14.80;99.90;;;;;;5056388;28;20529;-70
2021/10/04 06:34:52;;;;;;;1.63;1.53;;;14.80;99.90;;;;;;5027364;28;20212;-71
2021/10/04 06:37:17;;;;;;;1.50;1.40;;;14.80;99.90;;;;;;5057516;28;20690;-71
2021/10/04 06:39:43;;;;;;;2.33;2.13;;;14.90;99.90;;;;;;5033082;28;20207;-71
2021/10/04 06:42:09;;;;;;;1.60;1.50;;;14.90;99.90;;;;;;5032991;28;20238;-71
2021/10/04 06:44:37;;;;;;;2.17;1.83;;;14.90;99.90;;;;;;5014259;28;20215;-71
2021/10/04 06:47:03;;;;;;;2.13;1.90;;;14.90;99.90;;;;;;5030963;28;20516;-70
2021/10/04 06:49:29;;;;;;;5.20;2.10;;;14.90;99.90;;;;;;5035147;28;20482;-71
2021/10/04 06:51:54;;;;;;;2.97;2.37;;;14.90;99.90;;;;;;5029844;28;20554;-70
2021/10/04 06:54:20;;;;;;;2.20;1.90;;;14.90;99.90;;;;;;5029075;28;20254;-71
2021/10/04 06:56:45;;;;;;;2.00;1.77;;;14.90;99.90;;;;;;5061920;28;20261;-70
2021/10/04 06:59:11;;;;;;;2.20;1.97;;;14.90;99.90;;;;;;5048532;28;20235;-71
2021/10/04 07:01:37;;;;;;;2.20;1.90;;;14.90;99.90;;;;;;5033087;28;20219;-70
2021/10/04 07:04:04;;;;;;;2.43;2.07;;;14.90;99.90;;;;;;5049584;28;20230;-71
2021/10/04 07:06:30;;;;;;;2.13;1.93;;;14.90;99.90;;;;;;5066441;28;20791;-71
2021/10/04 07:08:56;;;;;;;3.60;2.40;;;14.90;99.90;;;;;;5049406;28;20988;-70
2021/10/04 07:11:21;;;;;;;3.67;2.53;;;15.00;99.90;;;;;;5039254;28;20468;-69
2021/10/04 07:13:49;;;;;;;1.67;1.57;;;14.90;99.90;;;;;;5048385;28;20222;-71
2021/10/04 07:16:18;;;;;;;1.93;1.83;;;15.00;99.90;;;;;;5050511;28;20616;-71
2021/10/04 07:18:43;;;;;;;3.93;2.30;;;15.00;99.90;;;;;;5047442;28;20453;-71
2021/10/04 07:21:09;;;;;;;2.00;1.90;;;15.00;99.90;;;;;;5032659;28;20484;-71
2021/10/04 07:23:35;;;;;;;3.00;1.83;;;15.00;99.90;;;;;;5048808;28;20211;-71
2021/10/04 07:26:01;;;;;;;2.47;2.30;;;15.00;99.90;;;;;;5032207;28;20992;-71
2021/10/04 07:28:27;;;;;;;3.03;1.90;;;14.90;99.90;;;;;;5047352;28;20227;-71
2021/10/04 07:30:53;;;;;;;2.60;2.40;;;15.00;99.90;;;;;;5047973;28;20699;-70
2021/10/04 07:33:18;;;;;;;2.43;2.23;;;15.00;99.90;;;;;;5032178;28;20244;-70
2021/10/04 07:35:44;;;;;;;1.80;1.70;;;15.00;99.90;;;;;;5027272;28;22663;-69
2021/10/04 07:38:10;;;;;;;1.90;1.73;;;15.00;99.90;;;;;;5013281;28;20230;-70
2021/10/04 07:40:36;;;;;;;1.97;1.87;;;15.00;99.90;;;;;;5030756;28;20288;-70
2021/10/04 07:43:02;;;;;;;2.30;2.10;;;15.00;99.90;;;;;;5048372;28;20223;-71
2021/10/04 07:45:31;;;;;;;2.73;2.53;;;15.00;99.90;;;;;;5030449;28;20223;-71
2021/10/04 07:47:56;;;;;;;2.73;2.53;;;15.00;99.90;;;;;;5049537;28;20477;-70
2021/10/04 07:50:22;;;;;;;3.00;2.70;;;15.00;99.90;;;;;;5041793;28;20482;-70
2021/10/04 07:52:48;;;;;;;3.13;2.70;;;15.00;99.90;;;;;;5044336;28;20219;-71
2021/10/04 07:55:13;;;;;;;3.13;2.77;;;15.00;99.90;;;;;;5048015;28;20227;-71
2021/10/04 07:57:39;;;;;;;10.70;2.53;;;15.00;99.90;;;;;;5025932;28;20214;-71
2021/10/04 08:00:07;;;;;;;3.37;3.07;;;15.00;99.90;;;;;;5031468;28;20233;-71
2021/10/04 08:02:38;;;;;;;2.87;2.60;;;15.00;99.90;;;;;;5048422;28;20219;-71
2021/10/04 08:05:04;;;;;;;3.37;2.80;;;14.90;99.90;;;;;;5050725;28;20454;-71
2021/10/04 08:07:30;;;;;;;2.70;2.50;;;15.00;99.90;;;;;;5039542;28;20234;-71
2021/10/04 08:09:56;;;;;;;2.67;2.47;;;14.90;99.90;;;;;;5066758;28;20453;-71
2021/10/04 08:12:25;;;;;;;3.93;2.63;;;14.90;99.90;;;;;;5037437;28;20242;-71
2021/10/04 08:14:51;;;;;;;4.90;2.30;;;14.90;99.90;;;;;;5027361;28;20234;-71
2021/10/04 08:17:17;;;;;;;2.93;2.50;;;14.90;99.90;;;;;;5048145;28;20457;-71
2021/10/04 08:19:43;;;;;;;2.80;2.60;;;14.90;99.90;;;;;;5064998;28;20449;-71
2021/10/04 08:22:09;;;;;;;3.30;2.47;;;14.90;99.90;;;;;;5048995;28;20227;-71
2021/10/04 08:24:35;;;;;;;2.97;2.67;;;14.90;99.90;;;;;;5048742;28;20706;-71
2021/10/04 08:27:01;;;;;;;2.80;2.60;;;15.00;99.90;;;;;;5047626;28;20468;-71
2021/10/04 08:29:26;;;;;;;3.10;2.80;;;15.00;99.90;;;;;;5048235;28;20702;-71
2021/10/04 08:31:52;;;;;;;2.20;2.00;;;15.00;99.90;;;;;;5042882;28;20309;-69
2021/10/04 08:34:18;;;;;;;3.10;2.40;;;14.90;99.90;;;;;;5047871;28;20223;-70
2021/10/04 08:36:43;;;;;;;2.10;1.90;;;15.00;99.90;;;;;;5030120;28;20223;-72
2021/10/04 08:39:09;;;;;;;2.10;1.90;;;15.00;99.90;;;;;;5030094;28;20223;-71
2021/10/04 08:41:37;;;;;;;2.27;2.10;;;15.00;99.90;;;;;;5063472;28;20266;-71
2021/10/04 08:44:07;;;;;;;2.20;2.10;;;15.00;99.90;;;;;;5046226;28;20226;-71
2021/10/04 08:46:37;;;;;;;2.37;1.87;;;15.00;99.90;;;;;;5061693;28;20552;-71
2021/10/04 08:49:03;;;;;;;1.80;1.70;;;15.00;99.90;;;;;;5046166;28;21122;-71
2021/10/04 08:51:28;;;;;;;2.20;2.00;;;15.00;99.90;;;;;;5062097;28;20549;-69
2021/10/04 08:53:54;;;;;;;1.90;1.80;;;15.00;99.90;;;;;;5044339;28;20540;-70
2021/10/04 08:56:20;;;;;;;2.37;2.03;;;15.00;99.90;;;;;;5062281;28;20227;-70
2021/10/04 08:58:46;;;;;;;2.70;2.00;;;15.00;99.90;;;;;;5031433;28;20215;-70
2021/10/04 09:01:11;;;;;;;5.90;2.43;;;15.00;99.90;;;;;;5033274;28;20465;-71
2021/10/04 09:03:44;;;;;;;2.00;1.80;;;15.00;99.90;;;;;;5059255;28;20215;-71
2021/10/04 09:06:35;;;;;;;1.83;1.63;;;15.00;99.90;;;;;;5032720;28;20228;-70
2021/10/04 09:09:06;;;;;;;1.70;1.60;;;15.00;99.90;;;;;;5016202;28;20493;-71
2021/10/04 09:11:38;;;;;;;1.90;1.80;;;15.00;99.90;;;;;;5030483;28;20462;-71
2021/10/04 09:14:12;;;;;;;1.77;1.63;;;15.10;99.90;;;;;;5049409;28;21032;-71
2021/10/04 09:16:49;;;;;;;1.83;1.63;;;15.00;99.90;;;;;;5030351;28;20500;-71
2021/10/04 09:19:21;;;;;;;1.67;1.57;;;15.10;99.90;;;;;;5014027;28;20503;-71
2021/10/04 09:22:15;;;;;;;1.50;1.40;;;15.10;99.90;;;;;;5043702;28;20487;-71
2021/10/04 09:25:04;;;;;;;1.50;1.40;;;15.10;99.90;;;;;;5039779;28;20527;-70
2021/10/04 09:27:32;;;;;;;2.03;1.50;;;15.20;99.90;;;;;;5067676;28;20500;-71
2021/10/04 09:30:04;;;;;;;1.57;1.40;;;15.10;99.90;;;;;;5062315;28;20447;-71
2021/10/04 09:32:36;;;;;;;1.77;1.40;;;15.20;99.90;;;;;;5056812;28;20976;-71
2021/10/04 09:35:25;;;;;;;2.43;1.80;;;15.20;99.90;;;;;;5032262;28;20452;-71
2021/10/04 09:37:53;;;;;;;1.60;1.50;;;15.20;99.90;;;;;;5061204;28;20864;-71
2021/10/04 09:40:34;;;;;;;2.33;1.57;;;15.20;99.90;;;;;;5047560;28;20453;-72
2021/10/04 09:43:03;;;;;;;1.50;1.40;;;15.20;99.90;;;;;;5029779;28;20513;-71
2021/10/04 09:45:29;;;;;;;1.60;1.50;;;15.20;99.90;;;;;;5025804;28;20450;-70
2021/10/04 09:47:55;;;;;;;3.97;1.90;;;15.30;99.90;;;;;;5033187;28;20517;-71
2021/10/04 09:50:28;;;;;;;1.20;1.20;;;15.30;99.90;;;;;;5045911;28;21114;-70
2021/10/04 09:52:55;;;;;;;4.37;2.00;;;15.30;99.90;;;;;;5027458;28;20453;-70
2021/10/04 09:55:26;;;;;;;1.70;1.60;;;15.20;99.90;;;;;;5047331;28;20458;-71
2021/10/04 09:57:56;;;;;;;2.30;1.47;;;15.20;99.90;;;;;;5048978;28;20469;-73
2021/10/04 10:00:21;;;;;;;2.20;1.50;;;15.30;99.90;;;;;;5056796;28;20471;-72
2021/10/04 10:02:54;;;;;;;0.90;0.90;;;15.30;99.90;;;;;;5029673;28;20446;-72
2021/10/04 10:05:21;;;;;;;1.40;1.30;;;15.30;99.90;;;;;;5029793;28;20254;-72
2021/10/04 10:07:47;;;;;;;1.27;1.20;;;15.30;99.90;;;;;;5014045;28;20536;-69
2021/10/04 10:10:13;;;;;;;1.50;1.23;;;15.30;99.90;;;;;;5031451;28;20461;-72
2021/10/04 10:12:39;;;;;;;1.57;1.47;;;15.40;99.90;;;;;;5066929;28;20527;-71
2021/10/04 10:15:05;;;;;;;1.40;1.30;;;15.40;99.90;;;;;;5031566;28;20319;-72
2021/10/04 10:17:32;;;;;;;2.30;1.77;;;15.40;99.90;;;;;;5029003;28;20227;-71
2021/10/04 10:20:00;;;;;;;1.47;1.37;;;15.40;99.90;;;;;;5030199;28;20508;-72
2021/10/04 10:22:29;;;;;;;1.20;1.10;;;15.50;99.90;;;;;;5049047;28;20462;-71
2021/10/04 10:24:56;;;;;;;1.83;1.00;;;15.50;99.90;;;;;;5022717;28;20541;-72
2021/10/04 10:27:41;;;;;;;2.13;1.30;;;15.50;99.90;;;;;;5049132;28;20536;-72
2021/10/04 10:30:18;;;;;;;0.93;0.90;;;15.50;99.90;;;;;;5048826;28;20477;-72
2021/10/04 10:32:44;;;;;;;1.23;1.13;;;15.50;99.90;;;;;;5024546;28;20510;-72
2021/10/04 10:35:10;;;;;;;1.00;1.00;;;15.50;99.90;;;;;;5041232;28;20460;-71
2021/10/04 10:37:52;;;;;;;1.40;1.30;;;15.60;99.90;;;;;;5040447;28;20462;-71
2021/10/04 10:40:20;;;;;;;1.30;1.20;;;15.60;99.90;;;;;;5064520;28;20385;-71
2021/10/04 10:42:58;;;;;;;0.80;0.80;;;15.50;99.90;;;;;;5048051;28;20456;-71
2021/10/04 10:45:24;;;;;;;1.20;1.10;;;15.60;99.90;;;;;;5031443;28;21182;-72
2021/10/04 10:47:52;;;;;;;0.73;0.73;;;15.60;99.90;;;;;;5047715;28;20457;-71
2021/10/04 10:50:32;;;;;;;0.90;0.90;;;15.60;99.90;;;;;;5032001;28;20677;-71
2021/10/04 10:52:58;;;;;;;2.33;0.93;;;15.60;99.90;;;;;;5040437;28;20450;-71
2021/10/04 10:55:24;;;;;;;0.90;0.90;;;15.60;99.90;;;;;;5046299;28;20462;-70
2021/10/04 10:57:50;;;;;;;0.87;0.87;;;15.60;99.90;;;;;;5047705;28;20215;-71
2021/10/04 11:00:23;;;;;;;1.57;1.27;;;15.60;99.90;;;;;;5046059;28;20664;-71
2021/10/04 11:02:59;;;;;;;0.67;0.67;;;15.60;99.90;;;;;;5029451;28;20472;-71
2021/10/04 11:05:48;;;;;;;0.70;0.70;;;15.70;99.90;;;;;;5031573;28;20514;-72
2021/10/04 11:08:20;;;;;;;1.53;0.97;;;15.70;99.90;;;;;;5032387;28;20857;-72
2021/10/04 11:10:52;;;;;;;1.20;1.10;;;15.70;99.90;;;;;;5029373;28;20521;-72
2021/10/04 11:13:30;;;;;;;0.83;0.83;;;15.70;99.90;;;;;;5030711;28;20547;-70
2021/10/04 11:16:06;;;;;;;0.80;0.80;;;15.70;99.90;;;;;;5042968;28;20457;-72
2021/10/04 11:18:39;;;;;;;0.80;0.80;;;15.70;99.90;;;;;;5011903;28;20580;-72
2021/10/04 11:21:08;;;;;;;1.57;0.80;;;15.70;99.90;;;;;;5010455;28;20462;-72
2021/10/04 11:23:39;;;;;;;0.80;0.80;;;15.80;99.90;;;;;;5043001;28;20454;-71
2021/10/04 11:26:08;;;;;;;0.80;0.80;;;15.80;99.90;;;;;;5046820;28;20931;-72
2021/10/04 11:28:33;;;;;;;0.80;0.80;;;15.80;99.90;;;;;;5047294;28;20466;-71
2021/10/04 11:31:04;;;;;;;0.90;0.90;;;15.90;99.90;;;;;;5047872;28;20522;-72
2021/10/04 11:33:33;;;;;;;0.70;0.70;;;15.90;99.90;;;;;;5056535;28;20274;-71
2021/10/04 11:36:03;;;;;;;0.80;0.80;;;16.00;99.90;;;;;;5030629;28;20446;-71
2021/10/04 11:38:31;;;;;;;1.73;0.77;;;16.00;99.90;;;;;;5043402;28;20458;-72
2021/10/04 11:40:57;;;;;;;1.30;0.90;;;16.10;99.90;;;;;;5047189;28;20522;-71
2021/10/04 11:43:24;;;;;;;1.50;1.40;;;16.20;99.90;;;;;;5030131;28;20458;-72
2021/10/04 11:45:51;;;;;;;0.70;0.70;;;16.20;99.90;;;;;;5046524;28;20518;-71
2021/10/04 11:48:46;;;;;;;1.10;1.00;;;16.30;99.90;;;;;;5046200;28;21031;-72
2021/10/04 11:51:28;;;;;;;0.60;0.60;;;16.30;99.90;;;;;;5036768;28;20470;-71
2021/10/04 11:53:54;;;;;;;0.97;0.97;;;16.40;99.90;;;;;;5028352;28;20470;-72
2021/10/04 11:56:21;;;;;;;0.90;0.90;;;16.40;99.90;;;;;;5059873;28;20465;-71
2021/10/04 11:58:55;;;;;;;0.77;0.77;;;16.50;99.90;;;;;;5029609;28;20447;-71
2021/10/04 12:01:33;;;;;;;0.70;0.70;;;16.50;99.90;;;;;;5023017;28;20995;-70
2021/10/04 12:04:10;;;;;;;0.87;0.87;;;16.60;99.90;;;;;;5059913;28;20465;-71
2021/10/04 12:06:38;;;;;;;0.60;0.60;;;16.60;99.90;;;;;;5042362;28;20465;-72
2021/10/04 12:09:05;;;;;;;0.70;0.70;;;16.60;99.90;;;;;;5029226;28;20540;-71
2021/10/04 12:11:32;;;;;;;0.70;0.70;;;16.60;99.90;;;;;;5041770;28;20462;-71
2021/10/04 12:14:00;;;;;;;1.03;0.93;;;16.70;99.90;;;;;;5026251;28;20496;-69
2021/10/04 12:16:32;;;;;;;2.20;0.80;;;16.70;99.90;;;;;;5044701;28;20470;-71
2021/10/04 12:19:00;;;;;;;0.70;0.70;;;16.70;99.90;;;;;;5037914;28;20562;-72
2021/10/04 12:21:31;;;;;;;1.07;0.90;;;16.70;99.90;;;;;;5043455;28;20542;-71
2021/10/04 12:24:07;;;;;;;0.70;0.60;;;16.70;99.90;;;;;;5037191;28;20461;-71
2021/10/04 12:26:44;;;;;;;0.80;0.80;;;16.70;99.90;;;;;;5045344;28;20496;-72
2021/10/04 12:29:09;;;;;;;0.67;0.67;;;16.70;99.90;;;;;;5028243;28;20489;-71
2021/10/04 12:31:37;;;;;;;0.80;0.73;;;16.70;99.90;;;;;;5025568;28;20801;-71
2021/10/04 12:34:19;;;;;;;0.90;0.90;;;16.80;99.90;;;;;;5060674;28;20226;-72
2021/10/04 12:36:45;;;;;;;0.87;0.83;;;16.80;99.90;;;;;;5067446;28;20461;-72
2021/10/04 12:39:10;;;;;;;1.03;0.93;;;16.80;99.90;;;;;;5067648;28;20445;-72
2021/10/04 12:41:47;;;;;;;0.83;0.83;;;16.80;99.90;;;;;;5039346;28;20474;-72
2021/10/04 12:44:15;;;;;;;0.80;0.80;;;16.80;99.90;;;;;;5062577;28;20257;-72
2021/10/04 12:47:04;;;;;;;1.93;0.77;;;16.80;99.90;;;;;;5030962;28;21009;-72
2021/10/04 12:49:31;;;;;;;1.73;1.17;;;16.90;99.90;;;;;;5032347;28;20576;-72